Randolph, Ohio
Current Conditions -  °F | °C
As of 3:54 AM on Sunday 23 Nov 2014 (Local Time) from KAKR Reporting Station
Overcast Overcast  
Wind Chill:   Ceiling: 3900
Heat Index:   Visibility: 10mi
Dew Point:   Wind: 12mph
Humidity: 58%   Direction: 200°SSW
Pressure: 30.04"   Gusts: NA
Location:  41.03°N, 81.25°W
Report Text: KAKR 230854Z AUTO 20010KT 10SM OVC039 09/01 A3004 RMK AO2 SLP176 60000 T00890011 56004
Loading
Personal Weather Stations






























Interactive Weather Map New forecast layout! Learn more

10-Day Weather Forecast

Advertisements
Track Severe Weather on mobile